METAR Data
IDs: Format: Raw Decoded Include TAF

Data at: 0754 UTC 08 May 2021

EGLL 080750Z AUTO 15011KT 4900 RA BKN006/// OVC011/// //////TCU 10/09 Q1004